Terminal Aerodrome Forecast
Issued by NWS Upton, NY

Home | Current Version | Previous Version | Text Only | Print | Product List | Glossary On
Versions: 1 2 3 4 5 6 7 8 9 10 11 12 13 14 15 16 17 18 19 20 21 22 23 24 25 26 27 28 29 30
000
FTUS41 KOKX 250200 AAA
TAFBDR
TAF AMD
KBDR 250229Z 2502/2524 19013G19KT 1/2SM -RA FG VV002 WS020/22060KT
      TEMPO 2503/2507 1/4SM FG VV002
     FM250800 20015G21KT 1SM +RA BR BKN003 WS020/22060KT
     FM251100 26014G24KT P6SM SCT020 BKN080
     FM251400 28016G30KT P6SM SCT080 BKN250
     FM252100 28014G24KT P6SM SKC=

USA.gov is the U.S. government's official web portal to all federal, state and local government web resources and services.